createdAt,value
2019-05-19T00:00:16.856Z,0.00
2019-05-19T00:01:16.829Z,0.00
2019-05-19T00:02:16.814Z,0.00
2019-05-19T00:03:16.789Z,0.00
2019-05-19T00:04:16.782Z,0.00
2019-05-19T00:05:16.774Z,0.00
2019-05-19T00:06:16.737Z,0.00
2019-05-19T00:07:16.721Z,0.00
2019-05-19T00:08:16.708Z,0.00
2019-05-19T00:09:16.817Z,0.00
2019-05-19T00:10:16.686Z,0.00
2019-05-19T06:09:28.796Z,309.38
2019-05-19T06:10:28.760Z,320.63
2019-05-19T06:11:28.740Z,326.25
2019-05-19T06:12:28.733Z,337.50
2019-05-19T06:13:28.697Z,348.75
2019-05-19T06:14:28.678Z,354.38
2019-05-19T06:15:28.672Z,360.00
2019-05-19T06:16:28.637Z,365.63
2019-05-19T06:17:28.653Z,371.25
2019-05-19T06:18:28.603Z,376.88
2019-05-19T06:19:28.579Z,393.75
2019-05-19T06:20:28.560Z,405.00
2019-05-19T06:21:28.544Z,410.63
2019-05-19T06:22:28.527Z,416.25
2019-05-19T06:23:28.518Z,427.50
2019-05-19T06:24:28.488Z,438.75
2019-05-19T06:25:28.513Z,450.00
2019-05-19T06:26:28.450Z,461.25
2019-05-19T06:27:28.433Z,466.88
2019-05-19T06:28:28.428Z,478.13
2019-05-19T06:29:28.400Z,489.38
2019-05-19T06:30:28.378Z,495.00
2019-05-19T06:31:28.361Z,500.63
2019-05-19T06:32:28.346Z,500.63
2019-05-19T06:33:28.351Z,500.63
2019-05-19T06:34:28.307Z,500.63
2019-05-19T06:35:28.290Z,506.25
2019-05-19T06:36:28.273Z,511.88
2019-05-19T06:37:28.255Z,511.88
2019-05-19T06:38:28.243Z,511.88
2019-05-19T06:39:28.235Z,517.50
2019-05-19T06:40:28.216Z,523.13
2019-05-19T06:41:28.187Z,528.75
2019-05-19T06:42:28.174Z,528.75
2019-05-19T06:43:28.157Z,534.38
2019-05-19T06:44:28.154Z,534.38
2019-05-19T06:45:28.130Z,540.00
2019-05-19T06:46:28.102Z,545.63
2019-05-19T06:47:28.085Z,551.25
2019-05-19T06:48:28.071Z,562.50
2019-05-19T06:49:28.065Z,568.13
2019-05-19T06:50:28.037Z,579.38
2019-05-19T06:51:28.075Z,585.00
2019-05-19T06:52:28.005Z,585.00
2019-05-19T06:53:27.993Z,590.63
2019-05-19T06:54:27.992Z,590.63
2019-05-19T06:55:27.971Z,585.00
2019-05-19T06:56:27.942Z,590.63
2019-05-19T06:57:27.926Z,596.25
2019-05-19T06:58:27.909Z,613.13
2019-05-19T06:59:27.890Z,607.50
2019-05-19T07:00:27.886Z,613.13
2019-05-19T07:01:27.860Z,618.75
2019-05-19T07:02:27.845Z,624.38
2019-05-19T07:03:27.886Z,630.00
2019-05-19T07:04:27.807Z,635.63
2019-05-19T07:05:28.542Z,635.63
2019-05-19T07:06:27.964Z,635.63
2019-05-19T07:07:27.760Z,635.63
2019-05-19T07:08:27.781Z,635.63
2019-05-19T07:09:27.748Z,630.00
2019-05-19T07:10:27.735Z,630.00
2019-05-19T07:11:27.709Z,624.38
2019-05-19T07:12:27.683Z,624.38
2019-05-19T07:13:27.696Z,624.38
2019-05-19T07:14:27.652Z,624.38
2019-05-19T07:15:27.639Z,618.75
2019-05-19T07:16:27.635Z,618.75
2019-05-19T07:17:27.607Z,624.38
2019-05-19T07:18:27.589Z,630.00
2019-05-19T07:19:27.572Z,641.25
2019-05-19T07:20:27.557Z,646.88
2019-05-19T07:21:27.558Z,658.13
2019-05-19T07:22:27.531Z,663.75
2019-05-19T07:23:28.787Z,669.38
2019-05-19T07:24:27.497Z,680.63
2019-05-19T07:25:27.483Z,691.88
2019-05-19T07:26:27.486Z,708.75
2019-05-19T07:27:27.451Z,720.00
2019-05-19T07:28:27.435Z,725.63
2019-05-19T07:29:27.421Z,742.50
2019-05-19T07:30:27.410Z,748.13
2019-05-19T07:31:27.409Z,759.38
2019-05-19T07:32:27.374Z,765.00
2019-05-19T07:33:27.360Z,770.63
2019-05-19T07:34:27.403Z,776.25
2019-05-19T07:35:27.329Z,781.88
2019-05-19T07:36:27.334Z,781.88
2019-05-19T07:37:27.316Z,793.13
2019-05-19T07:38:27.286Z,810.00
2019-05-19T07:39:27.271Z,804.38
2019-05-19T07:40:27.272Z,821.25
2019-05-19T07:41:27.244Z,826.88
2019-05-19T07:42:27.240Z,826.88
2019-05-19T07:43:27.212Z,838.13
2019-05-19T07:44:27.198Z,849.38
2019-05-19T07:45:27.181Z,843.75
2019-05-19T07:46:27.166Z,855.00
2019-05-19T07:47:27.990Z,866.25
2019-05-19T07:48:27.138Z,849.38
2019-05-19T07:49:27.274Z,849.38
2019-05-19T07:50:27.110Z,849.38
2019-05-19T07:51:27.093Z,843.75
2019-05-19T07:52:27.087Z,843.75
2019-05-19T07:53:27.081Z,849.38
2019-05-19T07:54:27.057Z,855.00
2019-05-19T07:55:27.048Z,860.63
2019-05-19T07:56:27.034Z,855.00
2019-05-19T07:57:27.008Z,855.00
2019-05-19T07:58:27.044Z,860.63
2019-05-19T07:59:26.976Z,860.63
2019-05-19T08:00:26.968Z,860.63
2019-05-19T08:01:26.954Z,866.25
2019-05-19T08:02:26.938Z,866.25
2019-05-19T08:03:26.937Z,871.88
2019-05-19T08:04:26.913Z,871.88
2019-05-19T08:05:26.895Z,871.88
2019-05-19T08:06:26.882Z,871.88
2019-05-19T08:07:26.869Z,871.88
2019-05-19T08:08:26.890Z,871.88
2019-05-19T08:09:26.851Z,871.88
2019-05-19T08:10:26.824Z,871.88
2019-05-19T08:11:27.079Z,871.88
2019-05-19T08:12:26.797Z,877.50
2019-05-19T08:13:26.783Z,888.75
2019-05-19T08:14:26.786Z,900.00
2019-05-19T08:15:26.755Z,916.88
2019-05-19T08:16:26.776Z,916.88
2019-05-19T08:17:26.727Z,922.50
2019-05-19T08:18:26.863Z,928.13
2019-05-19T08:19:26.712Z,933.75
2019-05-19T08:20:26.684Z,939.38
2019-05-19T08:21:26.732Z,939.38
2019-05-19T08:22:26.658Z,945.00
2019-05-19T08:23:26.643Z,945.00
2019-05-19T08:24:26.643Z,945.00
2019-05-19T08:25:26.619Z,945.00
2019-05-19T08:26:26.602Z,928.13
2019-05-19T08:27:26.589Z,928.13
2019-05-19T08:28:26.573Z,911.25
2019-05-19T08:29:26.576Z,900.00
2019-05-19T08:30:26.574Z,883.13
2019-05-19T08:31:26.547Z,871.88
2019-05-19T08:32:26.520Z,855.00
2019-05-19T08:33:26.518Z,843.75
2019-05-19T08:34:26.519Z,838.13
2019-05-19T08:35:26.482Z,815.63
2019-05-19T08:36:26.471Z,804.38
2019-05-19T08:37:26.475Z,798.75
2019-05-19T08:38:26.439Z,781.88
2019-05-19T08:39:26.427Z,787.50
2019-05-19T08:40:26.427Z,781.88
2019-05-19T08:41:26.399Z,770.63
2019-05-19T08:42:26.383Z,759.38
2019-05-19T08:43:26.370Z,753.75
2019-05-19T08:44:26.358Z,759.38
2019-05-19T08:45:26.362Z,753.75
2019-05-19T08:46:26.341Z,748.13
2019-05-19T08:47:26.319Z,753.75
2019-05-19T08:48:26.302Z,736.88
2019-05-19T08:49:26.316Z,731.25
2019-05-19T08:50:26.292Z,725.63
2019-05-19T08:51:26.261Z,720.00
2019-05-19T08:52:26.247Z,708.75
2019-05-19T08:53:26.331Z,714.38
2019-05-19T08:54:26.222Z,708.75
2019-05-19T08:55:26.222Z,703.13
2019-05-19T08:56:26.196Z,708.75
2019-05-19T08:57:26.186Z,708.75
2019-05-19T08:58:26.167Z,708.75
2019-05-19T08:59:26.190Z,708.75
2019-05-19T09:00:26.153Z,714.38
2019-05-19T09:01:26.125Z,703.13
2019-05-19T09:02:26.112Z,708.75
2019-05-19T09:03:26.102Z,697.50
2019-05-19T09:04:26.085Z,691.88
2019-05-19T09:05:26.100Z,697.50
2019-05-19T09:06:26.059Z,703.13
2019-05-19T09:07:26.042Z,708.75
2019-05-19T09:08:26.035Z,720.00
2019-05-19T09:09:26.020Z,714.38
2019-05-19T09:10:26.003Z,708.75
2019-05-19T09:11:26.002Z,714.38
2019-05-19T09:12:25.975Z,714.38
2019-05-19T09:13:25.963Z,714.38
2019-05-19T09:14:25.946Z,720.00
2019-05-19T09:15:25.933Z,720.00
2019-05-19T09:16:25.935Z,714.38
2019-05-19T09:17:25.917Z,714.38
2019-05-19T09:18:25.894Z,720.00
2019-05-19T09:19:25.883Z,720.00
2019-05-19T09:20:25.868Z,720.00
2019-05-19T09:21:25.875Z,720.00
2019-05-19T09:22:25.841Z,720.00
2019-05-19T09:23:25.828Z,720.00
2019-05-19T09:24:30.362Z,720.00
2019-05-19T09:25:25.810Z,725.63
2019-05-19T09:26:25.808Z,725.63
2019-05-19T09:27:25.771Z,731.25
2019-05-19T09:28:25.758Z,736.88
2019-05-19T09:29:25.745Z,742.50
2019-05-19T09:30:25.731Z,742.50
2019-05-19T09:31:25.717Z,742.50
2019-05-19T09:32:25.722Z,748.13
2019-05-19T09:33:25.689Z,748.13
2019-05-19T09:34:25.677Z,765.00
2019-05-19T09:35:25.661Z,765.00
2019-05-19T09:36:25.657Z,770.63
2019-05-19T09:37:25.651Z,770.63
2019-05-19T09:38:25.649Z,776.25
2019-05-19T09:39:25.609Z,776.25
2019-05-19T09:40:26.775Z,776.25
2019-05-19T09:41:25.595Z,776.25
2019-05-19T09:42:25.584Z,776.25
2019-05-19T09:43:25.557Z,776.25
2019-05-19T09:44:25.543Z,781.88
2019-05-19T09:45:25.531Z,776.25
2019-05-19T09:46:25.517Z,776.25
2019-05-19T09:47:25.517Z,770.63
2019-05-19T09:48:25.493Z,770.63
2019-05-19T09:49:25.479Z,765.00
2019-05-19T09:50:25.465Z,759.38
2019-05-19T09:51:25.450Z,753.75
2019-05-19T09:52:25.477Z,748.13
2019-05-19T09:53:25.426Z,742.50
2019-05-19T09:54:25.417Z,736.88
2019-05-19T09:55:25.399Z,731.25
2019-05-19T09:56:25.386Z,725.63
2019-05-19T09:57:25.373Z,725.63
2019-05-19T09:58:25.373Z,720.00
2019-05-19T09:59:25.347Z,714.38
2019-05-19T10:00:25.335Z,708.75
2019-05-19T10:01:25.323Z,708.75
2019-05-19T10:02:25.308Z,708.75
2019-05-19T10:03:25.311Z,720.00
2019-05-19T10:04:25.291Z,720.00
2019-05-19T10:05:25.272Z,725.63
2019-05-19T10:06:25.262Z,731.25
2019-05-19T10:07:25.244Z,731.25
2019-05-19T10:08:25.253Z,731.25
2019-05-19T10:09:25.221Z,736.88
2019-05-19T10:10:25.210Z,742.50
2019-05-19T10:11:25.199Z,742.50
2019-05-19T10:12:25.182Z,748.13
2019-05-19T10:13:25.188Z,770.63
2019-05-19T10:14:25.159Z,770.63
2019-05-19T10:15:25.144Z,781.88
2019-05-19T10:16:25.137Z,793.13
2019-05-19T10:17:25.119Z,798.75
2019-05-19T10:18:25.109Z,804.38
2019-05-19T10:19:25.111Z,815.63
2019-05-19T10:20:25.083Z,810.00
2019-05-19T10:21:25.069Z,815.63
2019-05-19T10:22:25.060Z,815.63
2019-05-19T10:23:25.043Z,815.63
2019-05-19T10:24:25.049Z,793.13
2019-05-19T10:25:25.043Z,787.50
2019-05-19T10:26:25.008Z,781.88
2019-05-19T10:27:24.994Z,776.25
2019-05-19T10:28:24.982Z,781.88
2019-05-19T10:29:24.991Z,781.88
2019-05-19T10:30:24.964Z,776.25
2019-05-19T10:31:24.944Z,776.25
2019-05-19T10:32:24.934Z,776.25
2019-05-19T10:33:24.921Z,776.25
2019-05-19T10:34:24.909Z,781.88
2019-05-19T10:35:24.910Z,787.50
2019-05-19T10:36:24.884Z,793.13
2019-05-19T10:37:24.872Z,798.75
2019-05-19T10:38:24.863Z,810.00
2019-05-19T10:39:24.851Z,804.38
2019-05-19T10:40:24.855Z,804.38
2019-05-19T10:41:24.822Z,810.00
2019-05-19T10:42:24.813Z,821.25
2019-05-19T10:43:24.799Z,821.25
2019-05-19T10:44:24.788Z,826.88
2019-05-19T10:45:24.812Z,832.50
2019-05-19T10:46:24.764Z,832.50
2019-05-19T10:47:24.803Z,843.75
2019-05-19T10:48:24.740Z,849.38
2019-05-19T10:49:24.729Z,860.63
2019-05-19T10:50:24.719Z,860.63
2019-05-19T10:51:24.720Z,866.25
2019-05-19T10:52:24.707Z,871.88
2019-05-19T10:53:24.683Z,883.13
2019-05-19T10:54:24.672Z,894.38
2019-05-19T10:55:35.971Z,900.00
2019-05-19T10:56:24.671Z,905.63
2019-05-19T10:57:24.635Z,911.25
2019-05-19T10:58:24.614Z,916.88
2019-05-19T10:59:24.601Z,911.25
2019-05-19T11:00:24.590Z,911.25
2019-05-19T11:01:24.577Z,911.25
2019-05-19T11:02:24.580Z,928.13
2019-05-19T11:03:24.554Z,945.00
2019-05-19T11:04:24.543Z,961.88
2019-05-19T11:05:24.527Z,961.88
2019-05-19T11:06:25.511Z,967.50
2019-05-19T11:07:24.516Z,967.50
2019-05-19T11:08:24.495Z,967.50
2019-05-19T11:09:24.480Z,967.50
2019-05-19T11:10:24.471Z,978.75
2019-05-19T11:11:24.455Z,984.38
2019-05-19T11:12:24.491Z,995.63
2019-05-19T11:13:24.475Z,1001.25
2019-05-19T11:14:24.421Z,1006.88
2019-05-19T11:15:24.410Z,1018.13
2019-05-19T11:16:24.401Z,1018.13
2019-05-19T11:17:24.385Z,1029.38
2019-05-19T11:18:24.499Z,1029.38
2019-05-19T11:19:24.389Z,1035.00
2019-05-19T11:20:24.349Z,1040.63
2019-05-19T11:21:24.335Z,1035.00
2019-05-19T11:22:24.339Z,1035.00
2019-05-19T11:23:24.359Z,1029.38
2019-05-19T11:24:24.311Z,1018.13
2019-05-19T11:25:33.376Z,1018.13
2019-05-19T11:26:24.278Z,1018.13
2019-05-19T11:27:24.271Z,1023.75
2019-05-19T11:28:24.478Z,1029.38
2019-05-19T11:29:24.243Z,1046.25
2019-05-19T11:30:24.233Z,1040.63
2019-05-19T11:31:24.219Z,1051.88
2019-05-19T11:32:24.210Z,1057.50
2019-05-19T11:33:24.197Z,1057.50
2019-05-19T11:34:24.211Z,1068.75
2019-05-19T11:35:24.174Z,1074.38
2019-05-19T11:36:24.166Z,1080.00
2019-05-19T11:37:24.153Z,1085.63
2019-05-19T11:38:24.148Z,1102.50
2019-05-19T11:39:24.143Z,1113.75
2019-05-19T11:40:24.117Z,1125.00
2019-05-19T11:41:24.132Z,1125.00
2019-05-19T11:42:24.096Z,1136.25
2019-05-19T11:43:24.085Z,1141.88
2019-05-19T11:44:24.109Z,1153.13
2019-05-19T11:45:24.060Z,1147.50
2019-05-19T11:46:24.049Z,1153.13
2019-05-19T11:47:24.037Z,1170.00
2019-05-19T11:48:24.025Z,1170.00
2019-05-19T11:49:24.019Z,1164.38
2019-05-19T11:50:24.018Z,1153.13
2019-05-19T11:51:24.036Z,1153.13
2019-05-19T11:52:23.980Z,1141.88
2019-05-19T11:53:23.973Z,1130.63
2019-05-19T11:54:23.958Z,1125.00
2019-05-19T11:55:23.963Z,1119.38
2019-05-19T11:56:23.951Z,1113.75
2019-05-19T11:57:24.109Z,1102.50
2019-05-19T11:58:24.002Z,1096.88
2019-05-19T11:59:23.914Z,1085.63
2019-05-19T12:00:23.961Z,1074.38
2019-05-19T12:01:23.924Z,1068.75
2019-05-19T12:02:23.875Z,1063.13
2019-05-19T12:03:23.862Z,1063.13
2019-05-19T12:04:23.867Z,1057.50
2019-05-19T12:05:23.892Z,1057.50
2019-05-19T12:06:38.006Z,1057.50
2019-05-19T12:07:23.814Z,1063.13
2019-05-19T12:08:23.808Z,1057.50
2019-05-19T12:09:23.825Z,1057.50
2019-05-19T12:10:23.783Z,1057.50
2019-05-19T12:11:23.782Z,1063.13
2019-05-19T12:12:23.758Z,1074.38
2019-05-19T12:13:23.750Z,1080.00
2019-05-19T12:14:23.742Z,1080.00
2019-05-19T12:15:23.727Z,1085.63
2019-05-19T12:16:23.754Z,1102.50
2019-05-19T12:17:23.702Z,1102.50
2019-05-19T12:18:23.694Z,1108.13
2019-05-19T12:19:23.719Z,1108.13
2019-05-19T12:20:23.670Z,1119.38
2019-05-19T12:21:23.659Z,1113.75
2019-05-19T12:22:23.676Z,1119.38
2019-05-19T12:23:23.651Z,1125.00
2019-05-19T12:24:23.637Z,1136.25
2019-05-19T12:25:23.692Z,1141.88
2019-05-19T12:26:23.912Z,1147.50
2019-05-19T12:27:23.617Z,1158.75
2019-05-19T12:28:23.589Z,1164.38
2019-05-19T12:29:23.571Z,1175.63
2019-05-19T12:30:23.558Z,1186.88
2019-05-19T12:31:23.553Z,1192.50
2019-05-19T12:32:23.559Z,1203.75
2019-05-19T12:33:23.527Z,1215.00
2019-05-19T12:34:23.520Z,1226.25
2019-05-19T12:35:23.516Z,1243.13
2019-05-19T12:36:23.497Z,1248.75
2019-05-19T12:37:23.520Z,1265.63
2019-05-19T12:38:23.468Z,1276.88
2019-05-19T12:39:23.462Z,1293.75
2019-05-19T12:40:23.448Z,1316.25
2019-05-19T12:41:23.440Z,1350.00
2019-05-19T12:42:23.431Z,1366.88
2019-05-19T12:43:23.434Z,1383.75
2019-05-19T12:44:23.405Z,1417.50
2019-05-19T12:45:23.392Z,1445.63
2019-05-19T12:46:23.384Z,1462.50
2019-05-19T12:47:23.381Z,1490.63
2019-05-19T12:48:23.375Z,1518.75
2019-05-19T12:49:23.351Z,1535.63
2019-05-19T12:50:23.337Z,1575.00
2019-05-19T12:51:26.662Z,1597.50
2019-05-19T12:52:23.315Z,1620.00
2019-05-19T12:53:23.342Z,1648.13
2019-05-19T12:54:23.306Z,1676.25
2019-05-19T12:55:23.284Z,1687.50
2019-05-19T12:56:37.128Z,1665.00
2019-05-19T12:57:23.262Z,1620.00
2019-05-19T12:58:23.272Z,1591.88
2019-05-19T12:59:23.240Z,1580.63
2019-05-19T13:00:23.231Z,1558.13
2019-05-19T13:01:23.222Z,1552.50
2019-05-19T13:02:23.284Z,1513.13
2019-05-19T13:03:23.201Z,1468.13
2019-05-19T13:04:23.207Z,1445.63
2019-05-19T13:05:23.182Z,1434.38
2019-05-19T13:06:23.172Z,1428.75
2019-05-19T13:07:23.162Z,1400.63
2019-05-19T13:08:23.152Z,1344.38
2019-05-19T13:09:23.157Z,1276.88
2019-05-19T13:10:23.135Z,1248.75
2019-05-19T13:11:23.123Z,1248.75
2019-05-19T13:12:23.114Z,1231.88
2019-05-19T13:13:23.104Z,1220.63
2019-05-19T13:14:23.108Z,1181.25
2019-05-19T13:15:23.087Z,1108.13
2019-05-19T13:16:23.076Z,1018.13
2019-05-19T13:17:23.064Z,905.63
2019-05-19T13:18:23.055Z,793.13
2019-05-19T13:19:23.075Z,646.88
2019-05-19T13:20:23.034Z,511.88
2019-05-19T13:21:23.026Z,427.50
2019-05-19T13:22:23.015Z,371.25
2019-05-19T13:23:23.007Z,354.38
2019-05-19T13:24:22.997Z,360.00
2019-05-19T13:25:23.004Z,382.50
2019-05-19T13:26:22.974Z,393.75
2019-05-19T13:27:22.966Z,410.63
2019-05-19T13:28:22.952Z,455.63
2019-05-19T13:29:22.942Z,568.13
2019-05-19T13:30:22.954Z,675.00
2019-05-19T13:31:22.916Z,703.13
2019-05-19T13:32:22.910Z,697.50
2019-05-19T13:33:22.896Z,731.25
2019-05-19T13:34:22.887Z,804.38
2019-05-19T13:35:22.886Z,787.50
2019-05-19T13:36:22.863Z,776.25
2019-05-19T13:37:22.849Z,742.50
2019-05-19T13:38:22.837Z,686.25
2019-05-19T13:39:22.829Z,601.88
2019-05-19T13:40:22.830Z,545.63
2019-05-19T13:41:22.805Z,489.38
2019-05-19T13:42:22.792Z,444.38
2019-05-19T13:43:26.187Z,410.63
2019-05-19T13:44:22.773Z,376.88
2019-05-19T13:45:22.769Z,348.75
2019-05-19T13:46:22.744Z,326.25
2019-05-19T13:47:22.731Z,298.13
2019-05-19T13:48:22.721Z,281.25
2019-05-19T13:49:22.715Z,275.63
2019-05-19T13:50:22.710Z,275.63
2019-05-19T13:51:22.682Z,281.25
2019-05-19T13:52:22.668Z,281.25
2019-05-19T13:53:22.655Z,286.88
2019-05-19T13:54:22.645Z,292.50
2019-05-19T13:55:22.645Z,292.50
2019-05-19T13:56:22.618Z,286.88
2019-05-19T13:57:22.605Z,292.50
2019-05-19T13:58:22.604Z,298.13
2019-05-19T13:59:22.577Z,303.75
2019-05-19T14:00:22.582Z,315.00
2019-05-19T14:01:28.782Z,331.88
2019-05-19T14:02:22.542Z,337.50
2019-05-19T14:03:22.524Z,365.63
2019-05-19T14:04:22.512Z,405.00
2019-05-19T14:05:22.498Z,444.38
2019-05-19T14:06:22.501Z,495.00
2019-05-19T14:07:22.471Z,551.25
2019-05-19T14:08:22.460Z,658.13
2019-05-19T14:09:22.454Z,742.50
2019-05-19T14:10:22.431Z,748.13
2019-05-19T14:11:22.429Z,843.75
2019-05-19T14:12:22.404Z,1029.38
2019-05-19T14:13:22.390Z,1226.25
2019-05-19T14:14:22.376Z,1310.63
2019-05-19T14:15:22.407Z,1271.25
2019-05-19T14:16:22.374Z,1321.88
2019-05-19T14:17:22.339Z,1366.88
2019-05-19T14:18:22.323Z,1833.75
2019-05-19T14:19:22.318Z,2092.50
2019-05-19T14:20:22.293Z,2362.50
2019-05-19T14:21:22.329Z,2486.25
2019-05-19T14:22:22.266Z,3099.38
2019-05-19T14:23:22.254Z,2581.88
2019-05-19T14:24:22.245Z,2508.75
2019-05-19T14:25:22.226Z,2430.00
2019-05-19T14:26:22.214Z,2300.63
2019-05-19T14:27:30.066Z,2193.75
2019-05-19T14:28:22.190Z,1687.50
2019-05-19T14:29:22.177Z,1473.75
2019-05-19T14:30:22.167Z,2008.13
2019-05-19T14:31:22.191Z,1372.50
2019-05-19T14:32:22.157Z,1316.25
2019-05-19T14:33:22.129Z,1237.50
2019-05-19T14:34:22.121Z,1175.63
2019-05-19T14:35:22.106Z,1119.38
2019-05-19T14:36:22.094Z,1068.75
2019-05-19T14:37:22.097Z,1046.25
2019-05-19T14:38:22.071Z,1023.75
2019-05-19T14:39:22.058Z,1001.25
2019-05-19T14:40:22.047Z,984.38
2019-05-19T14:41:33.105Z,950.63
2019-05-19T14:42:22.055Z,916.88
2019-05-19T14:43:22.010Z,871.88
2019-05-19T14:44:21.999Z,815.63
2019-05-19T14:45:21.986Z,759.38
2019-05-19T14:46:21.974Z,720.00
2019-05-19T14:47:21.999Z,691.88
2019-05-19T14:48:21.957Z,686.25
2019-05-19T14:49:21.941Z,691.88
2019-05-19T14:50:21.932Z,697.50
2019-05-19T14:51:21.933Z,720.00
2019-05-19T14:52:21.920Z,753.75
2019-05-19T14:53:21.889Z,798.75
2019-05-19T14:54:21.873Z,849.38
2019-05-19T14:55:21.866Z,883.13
2019-05-19T14:56:21.850Z,933.75
2019-05-19T14:57:21.874Z,1355.63
2019-05-19T14:58:21.824Z,1153.13
2019-05-19T14:59:21.809Z,1012.50
2019-05-19T15:00:21.799Z,1001.25
2019-05-19T15:01:21.793Z,1018.13
2019-05-19T15:02:21.775Z,1091.25
2019-05-19T15:03:21.779Z,1181.25
2019-05-19T15:04:21.748Z,1276.88
2019-05-19T15:05:21.734Z,1355.63
2019-05-19T15:06:21.722Z,2098.13
2019-05-19T15:07:21.707Z,2278.13
2019-05-19T15:08:21.709Z,2424.38
2019-05-19T15:09:21.683Z,1850.63
2019-05-19T15:10:21.672Z,2581.88
2019-05-19T15:11:21.660Z,2671.88
2019-05-19T15:12:21.648Z,2677.50
2019-05-19T15:13:21.672Z,2784.38
2019-05-19T15:14:21.627Z,2593.13
2019-05-19T15:15:21.613Z,2025.00
2019-05-19T15:16:21.600Z,2086.88
2019-05-19T15:17:21.592Z,1833.75
2019-05-19T15:18:21.579Z,2205.00
2019-05-19T15:19:21.582Z,2880.00
2019-05-19T15:20:21.557Z,2756.25
2019-05-19T15:21:21.549Z,2694.38
2019-05-19T15:22:21.537Z,2278.13
2019-05-19T15:23:21.527Z,2323.13
2019-05-19T15:24:21.533Z,2463.75
2019-05-19T15:25:21.509Z,2503.13
2019-05-19T15:26:21.503Z,2503.13
2019-05-19T15:27:21.493Z,1918.13
2019-05-19T15:28:21.481Z,1929.38
2019-05-19T15:29:21.492Z,1524.38
2019-05-19T15:30:21.463Z,1440.00
2019-05-19T15:31:21.453Z,1395.00
2019-05-19T15:32:21.446Z,1355.63
2019-05-19T15:33:21.466Z,1321.88
2019-05-19T15:34:21.428Z,1282.50
2019-05-19T15:35:21.431Z,1254.38
2019-05-19T15:36:21.409Z,1203.75
2019-05-19T15:37:21.401Z,1175.63
2019-05-19T15:38:21.393Z,1175.63
2019-05-19T15:39:21.382Z,1164.38
2019-05-19T15:40:21.386Z,1175.63
2019-05-19T15:41:21.438Z,1209.38
2019-05-19T15:42:21.355Z,1243.13
2019-05-19T15:43:21.350Z,1265.63
2019-05-19T15:44:21.336Z,1254.38
2019-05-19T15:45:21.341Z,1226.25
2019-05-19T15:46:21.320Z,1198.13
2019-05-19T15:47:21.309Z,1170.00
2019-05-19T15:48:21.297Z,1141.88
2019-05-19T15:49:21.286Z,1102.50
2019-05-19T15:50:21.293Z,1068.75
2019-05-19T15:51:28.735Z,1046.25
2019-05-19T15:52:21.257Z,1035.00
2019-05-19T15:53:21.244Z,1074.38
2019-05-19T15:54:21.237Z,1141.88
2019-05-19T15:55:21.243Z,1417.50
2019-05-19T15:56:21.215Z,1591.88
2019-05-19T15:57:21.204Z,1468.13
2019-05-19T15:58:21.197Z,1428.75
2019-05-19T15:59:21.182Z,1192.50
2019-05-19T16:00:21.172Z,1153.13
2019-05-19T16:01:21.173Z,1395.00
2019-05-19T16:02:21.154Z,1406.25
2019-05-19T16:03:21.146Z,1158.75
2019-05-19T16:04:21.128Z,1080.00
2019-05-19T16:05:21.120Z,1074.38
2019-05-19T16:06:21.132Z,1085.63
2019-05-19T16:07:21.099Z,1113.75
2019-05-19T16:08:21.092Z,1321.88
2019-05-19T16:09:21.073Z,1355.63
2019-05-19T16:10:21.080Z,1400.63
2019-05-19T16:11:21.075Z,1777.50
2019-05-19T16:12:21.042Z,2047.50
2019-05-19T16:13:22.118Z,1912.50
2019-05-19T16:14:21.021Z,1710.00
2019-05-19T16:15:21.009Z,1282.50
2019-05-19T16:16:20.998Z,1305.00
2019-05-19T16:17:21.009Z,1164.38
2019-05-19T16:18:20.980Z,2019.38
2019-05-19T16:19:20.972Z,2514.38
2019-05-19T16:20:20.962Z,1546.88
2019-05-19T16:21:20.967Z,1901.25
2019-05-19T16:22:20.960Z,1530.00
2019-05-19T16:23:20.928Z,1175.63
2019-05-19T16:24:20.921Z,1608.75
2019-05-19T16:25:20.910Z,1265.63
2019-05-19T16:26:20.899Z,1513.13
2019-05-19T16:27:20.906Z,2210.63
2019-05-19T16:28:30.404Z,2401.88
2019-05-19T16:29:20.876Z,2126.25
2019-05-19T16:30:20.861Z,1968.75
2019-05-19T16:31:20.850Z,2520.00
2019-05-19T16:32:20.892Z,2835.00
2019-05-19T16:33:20.835Z,2812.50
2019-05-19T16:34:20.826Z,2452.50
2019-05-19T16:35:20.819Z,1670.63
2019-05-19T16:36:20.815Z,1710.00
2019-05-19T16:37:20.803Z,1665.00
2019-05-19T16:38:20.809Z,2165.63
2019-05-19T16:39:20.786Z,2351.25
2019-05-19T16:40:20.782Z,1220.63
2019-05-19T16:41:20.771Z,1158.75
2019-05-19T16:42:20.765Z,1226.25
2019-05-19T16:43:20.768Z,1276.88
2019-05-19T16:44:20.747Z,1968.75
2019-05-19T16:45:20.740Z,1164.38
2019-05-19T16:46:20.731Z,1057.50
2019-05-19T16:47:20.722Z,961.88
2019-05-19T16:48:23.271Z,905.63
2019-05-19T16:49:20.708Z,883.13
2019-05-19T16:50:20.710Z,877.50
2019-05-19T16:51:20.693Z,888.75
2019-05-19T16:52:20.704Z,900.00
2019-05-19T16:53:20.675Z,911.25
2019-05-19T16:54:20.681Z,922.50
2019-05-19T16:55:20.658Z,1063.13
2019-05-19T16:56:20.648Z,933.75
2019-05-19T16:57:20.652Z,990.00
2019-05-19T16:58:21.810Z,911.25
2019-05-19T16:59:20.654Z,888.75
2019-05-19T17:00:20.623Z,860.63
2019-05-19T17:01:20.604Z,855.00
2019-05-19T17:02:20.592Z,843.75
2019-05-19T17:03:20.595Z,832.50
2019-05-19T17:04:20.585Z,826.88
2019-05-19T17:05:20.562Z,821.25
2019-05-19T17:06:20.551Z,826.88
2019-05-19T17:07:20.547Z,855.00
2019-05-19T17:08:20.532Z,978.75
2019-05-19T17:09:20.657Z,860.63
2019-05-19T17:10:20.526Z,832.50
2019-05-19T17:11:20.499Z,843.75
2019-05-19T17:12:20.487Z,832.50
2019-05-19T17:13:20.476Z,793.13
2019-05-19T17:14:20.465Z,753.75
2019-05-19T17:15:20.471Z,725.63
2019-05-19T17:16:20.443Z,680.63
2019-05-19T17:17:20.433Z,630.00
2019-05-19T17:18:20.421Z,573.75
2019-05-19T17:19:20.412Z,534.38
2019-05-19T17:20:20.426Z,500.63
2019-05-19T17:21:20.387Z,483.75
2019-05-19T17:22:20.374Z,466.88
2019-05-19T17:23:20.361Z,461.25
2019-05-19T17:24:20.351Z,466.88
2019-05-19T17:25:20.342Z,472.50
2019-05-19T17:26:20.342Z,483.75
2019-05-19T17:27:20.315Z,500.63
2019-05-19T17:28:20.300Z,534.38
2019-05-19T17:29:20.289Z,691.88
2019-05-19T17:30:20.278Z,950.63
2019-05-19T17:31:20.278Z,742.50
2019-05-19T17:32:20.252Z,630.00
2019-05-19T17:33:20.244Z,669.38
2019-05-19T17:34:20.229Z,607.50
2019-05-19T17:35:20.219Z,517.50
2019-05-19T17:36:20.240Z,517.50
2019-05-19T17:37:20.192Z,573.75
2019-05-19T17:38:20.178Z,641.25
2019-05-19T17:39:20.182Z,686.25
2019-05-19T17:40:20.153Z,708.75
2019-05-19T17:41:20.144Z,714.38
2019-05-19T17:42:20.143Z,697.50
2019-05-19T17:43:20.120Z,675.00
2019-05-19T17:44:20.108Z,540.00
2019-05-19T17:45:20.091Z,506.25
2019-05-19T17:46:20.087Z,489.38
2019-05-19T17:47:20.105Z,472.50
2019-05-19T17:48:26.591Z,461.25
2019-05-19T17:49:20.048Z,455.63
2019-05-19T17:50:20.037Z,455.63
2019-05-19T17:51:20.033Z,455.63
2019-05-19T17:52:20.008Z,438.75
2019-05-19T17:53:19.994Z,427.50
2019-05-19T17:54:20.290Z,427.50
2019-05-19T17:55:19.968Z,421.88
2019-05-19T17:56:19.992Z,416.25
2019-05-19T17:57:19.950Z,421.88
2019-05-19T17:58:19.933Z,416.25
2019-05-19T17:59:19.916Z,416.25
2019-05-19T18:00:19.901Z,410.63
2019-05-19T18:01:19.891Z,399.38
2019-05-19T18:02:19.893Z,382.50
2019-05-19T18:03:19.861Z,365.63
2019-05-19T18:04:19.849Z,343.13
2019-05-19T18:05:19.839Z,326.25
2019-05-19T18:06:19.824Z,315.00
2019-05-19T18:07:19.825Z,298.13
2019-05-19T18:08:19.797Z,286.88
2019-05-19T18:09:19.785Z,270.00
2019-05-19T18:10:19.773Z,253.13
2019-05-19T18:11:19.758Z,236.25
2019-05-19T18:12:19.743Z,225.00
2019-05-19T18:13:19.745Z,213.75
2019-05-19T18:14:19.716Z,208.13
2019-05-19T18:15:19.707Z,202.50
2019-05-19T18:16:19.692Z,196.88
2019-05-19T18:17:19.673Z,191.25
2019-05-19T18:18:19.677Z,180.00